sensor_id;sensor_type;location;lat;lon;timestamp;pressure;altitude;pressure_sealevel;temperature;humidity
47220;BME280;32961;51.936;4.788;2023-05-19T00:00:29;102758.41;;;9.88;77.24
47220;BME280;32961;51.936;4.788;2023-05-19T00:02:57;102750.63;;;9.82;77.76
47220;BME280;32961;51.936;4.788;2023-05-19T00:05:27;102742.97;;;9.74;77.87
47220;BME280;32961;51.936;4.788;2023-05-19T00:07:58;102750.22;;;9.73;78.40
47220;BME280;32961;51.936;4.788;2023-05-19T00:10:27;102751.28;;;9.71;78.20
47220;BME280;32961;51.936;4.788;2023-05-19T00:12:58;102735.63;;;9.60;78.96
47220;BME280;32961;51.936;4.788;2023-05-19T00:15:26;102749.13;;;9.61;79.22
47220;BME280;32961;51.936;4.788;2023-05-19T00:17:54;102745.72;;;9.58;78.93
47220;BME280;32961;51.936;4.788;2023-05-19T00:20:22;102741.25;;;9.57;79.43
47220;BME280;32961;51.936;4.788;2023-05-19T00:22:50;102748.81;;;9.52;80.18
47220;BME280;32961;51.936;4.788;2023-05-19T00:25:20;102738.31;;;9.45;80.38
47220;BME280;32961;51.936;4.788;2023-05-19T00:27:48;102740.41;;;9.40;81.05
47220;BME280;32961;51.936;4.788;2023-05-19T00:30:16;102736.81;;;9.40;80.93
47220;BME280;32961;51.936;4.788;2023-05-19T00:32:44;102730.72;;;9.36;80.67
47220;BME280;32961;51.936;4.788;2023-05-19T00:35:12;102738.84;;;9.36;80.88
47220;BME280;32961;51.936;4.788;2023-05-19T00:37:42;102705.63;;;9.17;81.03
47220;BME280;32961;51.936;4.788;2023-05-19T00:40:11;102744.09;;;9.23;82.60
47220;BME280;32961;51.936;4.788;2023-05-19T00:42:41;102735.63;;;9.29;81.75
47220;BME280;32961;51.936;4.788;2023-05-19T00:45:09;102729.25;;;9.14;82.43
47220;BME280;32961;51.936;4.788;2023-05-19T00:47:38;102746.91;;;9.22;82.52
47220;BME280;32961;51.936;4.788;2023-05-19T00:50:06;102747.97;;;9.19;83.12
47220;BME280;32961;51.936;4.788;2023-05-19T00:52:34;102746.16;;;9.20;82.45
47220;BME280;32961;51.936;4.788;2023-05-19T00:55:03;102735.22;;;9.05;83.02
47220;BME280;32961;51.936;4.788;2023-05-19T00:57:31;102742.09;;;9.11;82.74
47220;BME280;32961;51.936;4.788;2023-05-19T01:00:01;102731.69;;;9.03;83.38
47220;BME280;32961;51.936;4.788;2023-05-19T01:02:29;102745.00;;;9.08;83.10
47220;BME280;32961;51.936;4.788;2023-05-19T01:04:58;102715.34;;;8.89;83.30
47220;BME280;32961;51.936;4.788;2023-05-19T01:07:26;102738.34;;;8.97;83.65
47220;BME280;32961;51.936;4.788;2023-05-19T01:09:55;102740.09;;;8.98;84.29
47220;BME280;32961;51.936;4.788;2023-05-19T01:12:23;102726.13;;;8.90;85.25
47220;BME280;32961;51.936;4.788;2023-05-19T01:14:51;102729.16;;;8.84;85.64
47220;BME280;32961;51.936;4.788;2023-05-19T01:17:27;102712.38;;;8.77;85.12
47220;BME280;32961;51.936;4.788;2023-05-19T01:20:00;102712.47;;;8.92;84.87
47220;BME280;32961;51.936;4.788;2023-05-19T01:22:50;102717.28;;;8.87;85.39
47220;BME280;32961;51.936;4.788;2023-05-19T01:25:43;102728.13;;;8.87;85.69
47220;BME280;32961;51.936;4.788;2023-05-19T01:28:25;102725.78;;;8.80;86.55
47220;BME280;32961;51.936;4.788;2023-05-19T01:30:59;102710.63;;;8.76;86.27
47220;BME280;32961;51.936;4.788;2023-05-19T01:33:28;102724.88;;;8.80;86.76
47220;BME280;32961;51.936;4.788;2023-05-19T01:35:58;102717.53;;;8.82;86.63
47220;BME280;32961;51.936;4.788;2023-05-19T01:38:30;102711.41;;;8.78;86.33
47220;BME280;32961;51.936;4.788;2023-05-19T01:41:02;102718.59;;;8.79;86.94
47220;BME280;32961;51.936;4.788;2023-05-19T01:43:30;102720.34;;;8.80;86.99
47220;BME280;32961;51.936;4.788;2023-05-19T01:46:01;102713.44;;;8.75;87.27
47220;BME280;32961;51.936;4.788;2023-05-19T01:48:29;102706.69;;;8.66;87.76
47220;BME280;32961;51.936;4.788;2023-05-19T01:50:57;102713.59;;;8.72;87.44
47220;BME280;32961;51.936;4.788;2023-05-19T01:53:25;102710.38;;;8.65;87.66
47220;BME280;32961;51.936;4.788;2023-05-19T01:55:55;102714.28;;;8.59;88.28
47220;BME280;32961;51.936;4.788;2023-05-19T01:58:38;102705.38;;;8.57;87.91
47220;BME280;32961;51.936;4.788;2023-05-19T02:01:21;102713.31;;;8.60;87.90
47220;BME280;32961;51.936;4.788;2023-05-19T02:04:05;102700.22;;;8.53;87.91
47220;BME280;32961;51.936;4.788;2023-05-19T02:06:41;102716.13;;;8.59;88.45
47220;BME280;32961;51.936;4.788;2023-05-19T02:09:15;102701.31;;;8.48;88.31
47220;BME280;32961;51.936;4.788;2023-05-19T02:11:49;102708.44;;;8.51;88.64
47220;BME280;32961;51.936;4.788;2023-05-19T02:14:20;102657.56;;;8.23;88.73
47220;BME280;32961;51.936;4.788;2023-05-19T02:16:53;102703.38;;;8.61;88.44
47220;BME280;32961;51.936;4.788;2023-05-19T02:19:25;102702.22;;;8.49;88.79
47220;BME280;32961;51.936;4.788;2023-05-19T02:21:54;102700.47;;;8.48;88.61
47220;BME280;32961;51.936;4.788;2023-05-19T02:24:22;102704.03;;;8.48;89.26
47220;BME280;32961;51.936;4.788;2023-05-19T02:26:50;102685.16;;;8.47;88.58
47220;BME280;32961;51.936;4.788;2023-05-19T02:29:19;102702.31;;;8.47;89.27
47220;BME280;32961;51.936;4.788;2023-05-19T02:31:47;102700.63;;;8.45;89.26
47220;BME280;32961;51.936;4.788;2023-05-19T02:34:17;102697.97;;;8.43;90.28
47220;BME280;32961;51.936;4.788;2023-05-19T02:36:44;102701.41;;;8.47;89.09
47220;BME280;32961;51.936;4.788;2023-05-19T02:39:15;102690.19;;;8.37;89.88
47220;BME280;32961;51.936;4.788;2023-05-19T02:41:43;102684.16;;;8.32;89.35
47220;BME280;32961;51.936;4.788;2023-05-19T02:44:11;102648.22;;;8.12;90.17
47220;BME280;32961;51.936;4.788;2023-05-19T02:46:39;102689.41;;;8.35;89.75
47220;BME280;32961;51.936;4.788;2023-05-19T02:49:07;102689.41;;;8.35;89.88
47220;BME280;32961;51.936;4.788;2023-05-19T02:51:36;102681.34;;;8.33;89.69
47220;BME280;32961;51.936;4.788;2023-05-19T02:54:04;102682.75;;;8.25;89.99
47220;BME280;32961;51.936;4.788;2023-05-19T02:56:35;102679.59;;;8.32;90.05
47220;BME280;32961;51.936;4.788;2023-05-19T02:59:03;102677.16;;;8.28;90.05
47220;BME280;32961;51.936;4.788;2023-05-19T03:01:31;102662.97;;;8.23;89.46
47220;BME280;32961;51.936;4.788;2023-05-19T03:03:59;102682.81;;;8.23;90.14
47220;BME280;32961;51.936;4.788;2023-05-19T03:06:27;102676.69;;;8.19;90.39
47220;BME280;32961;51.936;4.788;2023-05-19T03:08:59;102672.34;;;8.17;91.17
47220;BME280;32961;51.936;4.788;2023-05-19T03:11:27;102681.94;;;8.23;90.24
47220;BME280;32961;51.936;4.788;2023-05-19T03:13:57;102668.81;;;8.15;90.58
47220;BME280;32961;51.936;4.788;2023-05-19T03:16:25;102684.91;;;8.18;90.48
47220;BME280;32961;51.936;4.788;2023-05-19T03:18:54;102674.50;;;8.10;91.31
47220;BME280;32961;51.936;4.788;2023-05-19T03:21:22;102678.31;;;8.06;91.48
47220;BME280;32961;51.936;4.788;2023-05-19T03:23:50;102666.50;;;7.91;91.06
47220;BME280;32961;51.936;4.788;2023-05-19T03:26:19;102638.25;;;7.79;90.39
47220;BME280;32961;51.936;4.788;2023-05-19T03:28:48;102669.03;;;7.94;90.30
47220;BME280;32961;51.936;4.788;2023-05-19T03:31:16;102668.31;;;7.91;90.78
47220;BME280;32961;51.936;4.788;2023-05-19T03:33:44;102667.38;;;7.92;91.08
47220;BME280;32961;51.936;4.788;2023-05-19T03:36:12;102623.53;;;7.67;91.22
47220;BME280;32961;51.936;4.788;2023-05-19T03:38:40;102659.44;;;7.89;91.85
47220;BME280;32961;51.936;4.788;2023-05-19T03:41:08;102619.03;;;7.68;91.15
47220;BME280;32961;51.936;4.788;2023-05-19T03:43:37;102656.53;;;7.92;91.73
47220;BME280;32961;51.936;4.788;2023-05-19T03:46:06;102654.78;;;7.91;91.82
47220;BME280;32961;51.936;4.788;2023-05-19T03:48:34;102661.09;;;7.91;91.75
47220;BME280;32961;51.936;4.788;2023-05-19T03:51:02;102664.66;;;7.92;91.84
47220;BME280;32961;51.936;4.788;2023-05-19T03:53:30;102669.91;;;7.95;92.32
47220;BME280;32961;51.936;4.788;2023-05-19T03:55:59;102628.81;;;7.70;91.97
47220;BME280;32961;51.936;4.788;2023-05-19T03:58:27;102667.59;;;7.87;91.87
47220;BME280;32961;51.936;4.788;2023-05-19T04:00:57;102661.25;;;7.88;91.84
47220;BME280;32961;51.936;4.788;2023-05-19T04:03:25;102658.78;;;7.83;93.29
47220;BME280;32961;51.936;4.788;2023-05-19T04:05:54;102657.38;;;7.76;92.80
47220;BME280;32961;51.936;4.788;2023-05-19T04:08:22;102618.97;;;7.52;92.98
47220;BME280;32961;51.936;4.788;2023-05-19T04:10:50;102667.88;;;7.82;92.45
47220;BME280;32961;51.936;4.788;2023-05-19T04:13:18;102666.03;;;7.83;92.80
47220;BME280;32961;51.936;4.788;2023-05-19T04:15:46;102672.47;;;7.80;92.56
47220;BME280;32961;51.936;4.788;2023-05-19T04:18:16;102674.38;;;7.78;92.29
47220;BME280;32961;51.936;4.788;2023-05-19T04:20:44;102662.53;;;7.63;93.60
47220;BME280;32961;51.936;4.788;2023-05-19T04:23:12;102681.06;;;7.71;93.21
47220;BME280;32961;51.936;4.788;2023-05-19T04:25:40;102668.44;;;7.54;93.92
47220;BME280;32961;51.936;4.788;2023-05-19T04:28:08;102674.22;;;7.64;93.30
47220;BME280;32961;51.936;4.788;2023-05-19T04:30:37;102649.03;;;7.46;93.79
47220;BME280;32961;51.936;4.788;2023-05-19T04:33:04;102666.63;;;7.54;93.26
47220;BME280;32961;51.936;4.788;2023-05-19T04:35:34;102685.31;;;7.77;92.89
47220;BME280;32961;51.936;4.788;2023-05-19T04:38:03;102677.91;;;7.63;93.52
47220;BME280;32961;51.936;4.788;2023-05-19T04:40:31;102660.41;;;7.52;94.29
47220;BME280;32961;51.936;4.788;2023-05-19T04:42:59;102676.94;;;7.64;93.88
47220;BME280;32961;51.936;4.788;2023-05-19T04:45:28;102685.63;;;7.70;94.41
47220;BME280;32961;51.936;4.788;2023-05-19T04:47:58;102683.78;;;7.71;94.21
47220;BME280;32961;51.936;4.788;2023-05-19T04:50:27;102690.09;;;7.71;94.97
47220;BME280;32961;51.936;4.788;2023-05-19T04:52:58;102681.78;;;7.75;95.36
47220;BME280;32961;51.936;4.788;2023-05-19T04:55:26;102688.16;;;7.74;96.03
47220;BME280;32961;51.936;4.788;2023-05-19T04:57:54;102688.34;;;7.70;97.22
47220;BME280;32961;51.936;4.788;2023-05-19T05:00:22;102693.41;;;7.77;97.18
47220;BME280;32961;51.936;4.788;2023-05-19T05:02:50;102686.88;;;7.81;98.13
47220;BME280;32961;51.936;4.788;2023-05-19T05:05:23;102689.09;;;7.90;97.61
47220;BME280;32961;51.936;4.788;2023-05-19T05:07:51;102689.97;;;7.91;97.71
47220;BME280;32961;51.936;4.788;2023-05-19T05:10:21;102695.00;;;7.98;98.47
47220;BME280;32961;51.936;4.788;2023-05-19T05:12:49;102704.28;;;8.10;98.46
47220;BME280;32961;51.936;4.788;2023-05-19T05:15:18;102706.81;;;8.13;98.47
47220;BME280;32961;51.936;4.788;2023-05-19T05:17:47;102700.13;;;8.21;99.15
47220;BME280;32961;51.936;4.788;2023-05-19T05:20:16;102707.28;;;8.22;99.57
47220;BME280;32961;51.936;4.788;2023-05-19T05:22:45;102706.88;;;8.29;99.70
47220;BME280;32961;51.936;4.788;2023-05-19T05:25:14;102701.19;;;8.34;98.92
47220;BME280;32961;51.936;4.788;2023-05-19T05:27:44;102703.56;;;8.40;99.24
47220;BME280;32961;51.936;4.788;2023-05-19T05:30:12;102703.97;;;8.50;99.05
47220;BME280;32961;51.936;4.788;2023-05-19T05:32:40;102704.69;;;8.54;99.35
47220;BME280;32961;51.936;4.788;2023-05-19T05:35:09;102701.44;;;8.63;98.38
47220;BME280;32961;51.936;4.788;2023-05-19T05:37:36;102704.09;;;8.64;98.85
47220;BME280;32961;51.936;4.788;2023-05-19T05:40:06;102713.53;;;8.73;99.41
47220;BME280;32961;51.936;4.788;2023-05-19T05:42:34;102712.81;;;8.86;98.89
47220;BME280;32961;51.936;4.788;2023-05-19T05:45:06;102689.13;;;8.89;97.99
47220;BME280;32961;51.936;4.788;2023-05-19T05:47:35;102706.34;;;9.04;97.63
47220;BME280;32961;51.936;4.788;2023-05-19T05:50:05;102700.56;;;9.10;98.41
47220;BME280;32961;51.936;4.788;2023-05-19T05:52:35;102693.03;;;9.15;97.95
47220;BME280;32961;51.936;4.788;2023-05-19T05:55:04;102712.69;;;9.35;97.39
47220;BME280;32961;51.936;4.788;2023-05-19T05:57:33;102712.16;;;9.44;96.85
47220;BME280;32961;51.936;4.788;2023-05-19T06:00:02;102707.47;;;9.46;95.47
47220;BME280;32961;51.936;4.788;2023-05-19T06:02:35;102695.13;;;9.57;96.04
47220;BME280;32961;51.936;4.788;2023-05-19T06:05:04;102705.72;;;9.76;94.84
47220;BME280;32961;51.936;4.788;2023-05-19T06:07:32;102706.53;;;9.92;94.64
47220;BME280;32961;51.936;4.788;2023-05-19T06:10:00;102706.06;;;10.00;94.12
47220;BME280;32961;51.936;4.788;2023-05-19T06:12:27;102701.91;;;10.09;93.89
47220;BME280;32961;51.936;4.788;2023-05-19T06:14:55;102688.59;;;10.19;93.53
47220;BME280;32961;51.936;4.788;2023-05-19T06:17:23;102707.16;;;10.41;93.37
47220;BME280;32961;51.936;4.788;2023-05-19T06:19:53;102701.66;;;10.57;90.72
47220;BME280;32961;51.936;4.788;2023-05-19T06:22:21;102684.56;;;10.55;90.17
47220;BME280;32961;51.936;4.788;2023-05-19T06:24:49;102704.91;;;10.76;89.20
47220;BME280;32961;51.936;4.788;2023-05-19T06:27:16;102703.22;;;10.88;88.74
47220;BME280;32961;51.936;4.788;2023-05-19T06:29:44;102700.78;;;10.98;87.41
47220;BME280;32961;51.936;4.788;2023-05-19T06:32:13;102690.44;;;11.03;86.21
47220;BME280;32961;51.936;4.788;2023-05-19T06:34:41;102681.56;;;11.14;86.11
47220;BME280;32961;51.936;4.788;2023-05-19T06:37:11;102700.28;;;11.33;84.53
47220;BME280;32961;51.936;4.788;2023-05-19T06:39:40;102696.47;;;11.49;82.57
47220;BME280;32961;51.936;4.788;2023-05-19T06:42:08;102692.69;;;11.51;83.37
47220;BME280;32961;51.936;4.788;2023-05-19T06:44:36;102704.06;;;11.71;82.81
47220;BME280;32961;51.936;4.788;2023-05-19T06:47:04;102708.09;;;11.78;81.81
47220;BME280;32961;51.936;4.788;2023-05-19T06:49:32;102704.41;;;11.92;81.68
47220;BME280;32961;51.936;4.788;2023-05-19T06:52:00;102704.56;;;12.03;80.90
47220;BME280;32961;51.936;4.788;2023-05-19T06:54:29;102715.56;;;12.02;79.90
47220;BME280;32961;51.936;4.788;2023-05-19T06:56:57;102689.41;;;11.99;80.02
47220;BME280;32961;51.936;4.788;2023-05-19T06:59:24;102696.19;;;12.07;79.67
47220;BME280;32961;51.936;4.788;2023-05-19T07:01:52;102708.38;;;12.27;79.15
47220;BME280;32961;51.936;4.788;2023-05-19T07:04:20;102705.06;;;12.34;78.62
47220;BME280;32961;51.936;4.788;2023-05-19T07:06:48;102706.81;;;12.48;77.57
47220;BME280;32961;51.936;4.788;2023-05-19T07:09:16;102699.19;;;12.54;76.60
47220;BME280;32961;51.936;4.788;2023-05-19T07:11:45;102707.03;;;12.58;76.98
47220;BME280;32961;51.936;4.788;2023-05-19T07:14:14;102700.72;;;12.82;77.90
47220;BME280;32961;51.936;4.788;2023-05-19T07:16:42;102703.63;;;13.05;75.64
47220;BME280;32961;51.936;4.788;2023-05-19T07:19:09;102705.00;;;13.10;75.31
47220;BME280;32961;51.936;4.788;2023-05-19T07:21:37;102706.88;;;13.10;73.34
47220;BME280;32961;51.936;4.788;2023-05-19T07:24:05;102700.34;;;13.24;74.72
47220;BME280;32961;51.936;4.788;2023-05-19T07:26:33;102700.72;;;13.43;73.98
47220;BME280;32961;51.936;4.788;2023-05-19T07:29:03;102702.38;;;13.57;73.44
47220;BME280;32961;51.936;4.788;2023-05-19T07:31:31;102701.94;;;13.63;72.64
47220;BME280;32961;51.936;4.788;2023-05-19T07:33:59;102707.75;;;13.59;71.05
47220;BME280;32961;51.936;4.788;2023-05-19T07:36:26;102698.78;;;13.57;71.67
47220;BME280;32961;51.936;4.788;2023-05-19T07:38:54;102700.44;;;13.71;71.42
47220;BME280;32961;51.936;4.788;2023-05-19T07:41:22;102694.59;;;13.64;71.10
47220;BME280;32961;51.936;4.788;2023-05-19T07:43:50;102702.19;;;13.72;70.92
47220;BME280;32961;51.936;4.788;2023-05-19T07:46:20;102700.72;;;13.79;71.66
47220;BME280;32961;51.936;4.788;2023-05-19T07:48:48;102691.03;;;13.86;69.88
47220;BME280;32961;51.936;4.788;2023-05-19T07:51:16;102689.16;;;13.87;68.67
47220;BME280;32961;51.936;4.788;2023-05-19T07:53:45;102673.75;;;13.74;69.46
47220;BME280;32961;51.936;4.788;2023-05-19T07:56:13;102691.06;;;13.98;69.25
47220;BME280;32961;51.936;4.788;2023-05-19T07:58:41;102689.59;;;14.16;69.26
47220;BME280;32961;51.936;4.788;2023-05-19T08:01:09;102686.00;;;14.38;69.43
47220;BME280;32961;51.936;4.788;2023-05-19T08:03:38;102676.06;;;14.49;67.31
47220;BME280;32961;51.936;4.788;2023-05-19T08:06:06;102677.91;;;14.37;67.59
47220;BME280;32961;51.936;4.788;2023-05-19T08:08:34;102679.53;;;14.62;64.73
47220;BME280;32961;51.936;4.788;2023-05-19T08:11:02;102665.09;;;14.71;65.68
47220;BME280;32961;51.936;4.788;2023-05-19T08:13:30;102665.66;;;14.98;64.96
47220;BME280;32961;51.936;4.788;2023-05-19T08:16:00;102662.47;;;14.92;63.50
47220;BME280;32961;51.936;4.788;2023-05-19T08:18:28;102664.72;;;14.76;64.60
47220;BME280;32961;51.936;4.788;2023-05-19T08:20:57;102644.56;;;14.77;63.80
47220;BME280;32961;51.936;4.788;2023-05-19T08:23:25;102661.66;;;15.02;63.76
47220;BME280;32961;51.936;4.788;2023-05-19T08:25:53;102657.41;;;15.42;62.68
47220;BME280;32961;51.936;4.788;2023-05-19T08:28:22;102662.97;;;15.51;60.18
47220;BME280;32961;51.936;4.788;2023-05-19T08:30:50;102652.63;;;15.55;61.04
47220;BME280;32961;51.936;4.788;2023-05-19T08:33:18;102657.94;;;15.78;58.95
47220;BME280;32961;51.936;4.788;2023-05-19T08:35:47;102654.59;;;15.74;58.44
47220;BME280;32961;51.936;4.788;2023-05-19T08:38:16;102650.94;;;15.85;58.74
47220;BME280;32961;51.936;4.788;2023-05-19T08:40:45;102641.03;;;15.94;57.51
47220;BME280;32961;51.936;4.788;2023-05-19T08:43:13;102637.94;;;16.08;55.25
47220;BME280;32961;51.936;4.788;2023-05-19T08:45:44;102640.03;;;16.26;54.96
47220;BME280;32961;51.936;4.788;2023-05-19T08:48:16;102632.75;;;16.46;54.86
47220;BME280;32961;51.936;4.788;2023-05-19T08:50:51;102628.72;;;16.60;52.54
47220;BME280;32961;51.936;4.788;2023-05-19T08:53:26;102619.53;;;16.71;51.41
47220;BME280;32961;51.936;4.788;2023-05-19T08:56:03;102624.00;;;16.72;51.73
47220;BME280;32961;51.936;4.788;2023-05-19T08:58:37;102617.31;;;16.55;51.19
47220;BME280;32961;51.936;4.788;2023-05-19T09:01:06;102607.03;;;16.37;52.81
47220;BME280;32961;51.936;4.788;2023-05-19T09:03:34;102629.66;;;16.70;51.61
47220;BME280;32961;51.936;4.788;2023-05-19T09:06:05;102623.84;;;16.73;49.39
47220;BME280;32961;51.936;4.788;2023-05-19T09:08:35;102604.97;;;16.80;48.60
47220;BME280;32961;51.936;4.788;2023-05-19T09:11:04;102623.75;;;17.04;48.68
47220;BME280;32961;51.936;4.788;2023-05-19T09:13:37;102627.53;;;17.23;46.80
47220;BME280;32961;51.936;4.788;2023-05-19T09:16:06;102632.59;;;17.37;47.09
47220;BME280;32961;51.936;4.788;2023-05-19T09:18:37;102621.88;;;17.44;46.67
47220;BME280;32961;51.936;4.788;2023-05-19T09:21:05;102625.63;;;17.62;47.84
47220;BME280;32961;51.936;4.788;2023-05-19T09:23:33;102633.66;;;17.84;45.86
47220;BME280;32961;51.936;4.788;2023-05-19T09:26:03;102621.34;;;17.98;46.46
47220;BME280;32961;51.936;4.788;2023-05-19T09:28:35;102621.91;;;17.91;44.45
47220;BME280;32961;51.936;4.788;2023-05-19T09:31:04;102620.31;;;17.89;44.43
47220;BME280;32961;51.936;4.788;2023-05-19T09:33:33;102615.94;;;18.06;44.53
47220;BME280;32961;51.936;4.788;2023-05-19T09:36:02;102619.88;;;17.93;42.77
47220;BME280;32961;51.936;4.788;2023-05-19T09:38:31;102597.34;;;17.80;41.93
47220;BME280;32961;51.936;4.788;2023-05-19T09:41:00;102606.47;;;17.80;41.30
47220;BME280;32961;51.936;4.788;2023-05-19T09:43:30;102605.88;;;17.96;42.23
47220;BME280;32961;51.936;4.788;2023-05-19T09:45:59;102617.56;;;17.99;41.27
47220;BME280;32961;51.936;4.788;2023-05-19T09:48:27;102617.72;;;17.87;41.08
47220;BME280;32961;51.936;4.788;2023-05-19T09:50:56;102613.97;;;17.98;39.86
47220;BME280;32961;51.936;4.788;2023-05-19T09:53:24;102612.63;;;18.02;39.25
47220;BME280;32961;51.936;4.788;2023-05-19T09:55:54;102609.75;;;18.04;41.02
47220;BME280;32961;51.936;4.788;2023-05-19T09:58:24;102609.47;;;18.35;40.96
47220;BME280;32961;51.936;4.788;2023-05-19T10:00:55;102602.47;;;18.40;40.06
47220;BME280;32961;51.936;4.788;2023-05-19T10:03:24;102607.66;;;18.43;39.39
47220;BME280;32961;51.936;4.788;2023-05-19T10:05:52;102617.44;;;18.56;39.81
47220;BME280;32961;51.936;4.788;2023-05-19T10:08:21;102615.69;;;18.55;39.82
47220;BME280;32961;51.936;4.788;2023-05-19T10:10:50;102607.56;;;18.63;39.81
47220;BME280;32961;51.936;4.788;2023-05-19T10:13:18;102604.91;;;18.71;37.52
47220;BME280;32961;51.936;4.788;2023-05-19T10:15:48;102602.81;;;18.73;37.68
47220;BME280;32961;51.936;4.788;2023-05-19T10:18:22;102594.56;;;18.73;39.76
47220;BME280;32961;51.936;4.788;2023-05-19T10:20:53;102610.00;;;18.84;38.89
47220;BME280;32961;51.936;4.788;2023-05-19T10:23:21;102595.16;;;18.95;38.77
47220;BME280;32961;51.936;4.788;2023-05-19T10:25:50;102585.34;;;19.11;38.52
47220;BME280;32961;51.936;4.788;2023-05-19T10:28:18;102578.31;;;19.16;38.31
47220;BME280;32961;51.936;4.788;2023-05-19T10:30:53;102594.63;;;19.28;37.76
47220;BME280;32961;51.936;4.788;2023-05-19T10:33:30;102598.47;;;19.17;37.11
47220;BME280;32961;51.936;4.788;2023-05-19T10:36:18;102590.34;;;19.15;38.40
47220;BME280;32961;51.936;4.788;2023-05-19T10:38:54;102581.84;;;19.27;38.02
47220;BME280;32961;51.936;4.788;2023-05-19T10:41:27;102578.22;;;19.26;38.44
47220;BME280;32961;51.936;4.788;2023-05-19T10:44:06;102574.69;;;19.34;37.27
47220;BME280;32961;51.936;4.788;2023-05-19T10:46:38;102572.47;;;19.37;37.34
47220;BME280;32961;51.936;4.788;2023-05-19T10:49:18;102573.72;;;19.25;37.60
47220;BME280;32961;51.936;4.788;2023-05-19T10:51:47;102572.31;;;19.21;36.96
47220;BME280;32961;51.936;4.788;2023-05-19T10:54:15;102570.84;;;19.27;36.80
47220;BME280;32961;51.936;4.788;2023-05-19T10:56:48;102591.91;;;19.36;37.68
47220;BME280;32961;51.936;4.788;2023-05-19T10:59:33;102578.38;;;19.51;37.90
47220;BME280;32961;51.936;4.788;2023-05-19T11:02:03;102570.72;;;19.63;36.12
47220;BME280;32961;51.936;4.788;2023-05-19T11:04:44;102574.38;;;19.19;37.06
47220;BME280;32961;51.936;4.788;2023-05-19T11:07:17;102559.91;;;19.43;39.02
47220;BME280;32961;51.936;4.788;2023-05-19T11:09:49;102553.50;;;19.87;37.84
47220;BME280;32961;51.936;4.788;2023-05-19T11:12:21;102563.16;;;19.38;35.82
47220;BME280;32961;51.936;4.788;2023-05-19T11:14:51;102542.66;;;19.15;36.89
47220;BME280;32961;51.936;4.788;2023-05-19T11:17:19;102567.63;;;19.39;36.92
47220;BME280;32961;51.936;4.788;2023-05-19T11:19:55;102549.50;;;19.55;35.96
47220;BME280;32961;51.936;4.788;2023-05-19T11:22:25;102557.53;;;19.75;36.70
47220;BME280;32961;51.936;4.788;2023-05-19T11:24:54;102546.59;;;20.26;37.20
47220;BME280;32961;51.936;4.788;2023-05-19T11:27:24;102552.16;;;20.59;35.59
47220;BME280;32961;51.936;4.788;2023-05-19T11:29:53;102560.31;;;20.68;34.40
47220;BME280;32961;51.936;4.788;2023-05-19T11:32:24;102543.97;;;20.16;35.49
47220;BME280;32961;51.936;4.788;2023-05-19T11:34:54;102548.84;;;20.39;35.49
47220;BME280;32961;51.936;4.788;2023-05-19T11:37:22;102552.84;;;20.52;34.66
47220;BME280;32961;51.936;4.788;2023-05-19T11:39:51;102545.63;;;20.68;34.23
47220;BME280;32961;51.936;4.788;2023-05-19T11:42:19;102544.47;;;20.79;32.52
47220;BME280;32961;51.936;4.788;2023-05-19T11:44:47;102548.03;;;20.55;32.41
47220;BME280;32961;51.936;4.788;2023-05-19T11:47:16;102546.97;;;20.47;32.72
47220;BME280;32961;51.936;4.788;2023-05-19T11:49:44;102541.19;;;20.75;32.42
47220;BME280;32961;51.936;4.788;2023-05-19T11:52:15;102539.66;;;20.81;31.60
47220;BME280;32961;51.936;4.788;2023-05-19T11:54:47;102532.38;;;20.72;32.47
47220;BME280;32961;51.936;4.788;2023-05-19T11:57:17;102536.88;;;20.89;32.82
47220;BME280;32961;51.936;4.788;2023-05-19T11:59:45;102530.31;;;21.15;32.69
47220;BME280;32961;51.936;4.788;2023-05-19T12:02:16;102528.56;;;21.30;31.34
47220;BME280;32961;51.936;4.788;2023-05-19T12:04:45;102525.94;;;21.45;31.92
47220;BME280;32961;51.936;4.788;2023-05-19T12:07:16;102535.47;;;21.59;31.42
47220;BME280;32961;51.936;4.788;2023-05-19T12:09:45;102530.44;;;21.55;30.81
47220;BME280;32961;51.936;4.788;2023-05-19T12:12:15;102523.91;;;21.31;31.87
47220;BME280;32961;51.936;4.788;2023-05-19T12:14:43;102523.44;;;20.94;32.94
47220;BME280;32961;51.936;4.788;2023-05-19T12:17:13;102527.22;;;21.02;33.47
47220;BME280;32961;51.936;4.788;2023-05-19T12:19:42;102521.31;;;21.29;33.94
47220;BME280;32961;51.936;4.788;2023-05-19T12:22:11;102514.91;;;21.37;32.66
47220;BME280;32961;51.936;4.788;2023-05-19T12:24:41;102513.94;;;20.97;31.00
47220;BME280;32961;51.936;4.788;2023-05-19T12:27:11;102514.44;;;21.00;32.13
47220;BME280;32961;51.936;4.788;2023-05-19T12:29:39;102509.50;;;20.28;31.63
47220;BME280;32961;51.936;4.788;2023-05-19T12:32:10;102508.38;;;20.64;32.85
47220;BME280;32961;51.936;4.788;2023-05-19T12:34:38;102510.16;;;20.14;33.68
47220;BME280;32961;51.936;4.788;2023-05-19T12:37:06;102499.91;;;20.65;34.01
47220;BME280;32961;51.936;4.788;2023-05-19T12:39:34;102492.50;;;21.07;34.20
47220;BME280;32961;51.936;4.788;2023-05-19T12:42:06;102493.34;;;21.16;34.58
47220;BME280;32961;51.936;4.788;2023-05-19T12:44:36;102490.94;;;21.13;34.48
47220;BME280;32961;51.936;4.788;2023-05-19T12:47:05;102495.19;;;21.48;32.65
47220;BME280;32961;51.936;4.788;2023-05-19T12:49:33;102482.28;;;21.08;33.15
47220;BME280;32961;51.936;4.788;2023-05-19T12:52:02;102491.13;;;21.03;32.76
47220;BME280;32961;51.936;4.788;2023-05-19T12:54:38;102483.13;;;21.33;34.12
47220;BME280;32961;51.936;4.788;2023-05-19T12:57:09;102484.66;;;21.52;33.97
47220;BME280;32961;51.936;4.788;2023-05-19T12:59:37;102488.09;;;21.62;33.60
47220;BME280;32961;51.936;4.788;2023-05-19T13:02:05;102495.34;;;21.63;33.94
47220;BME280;32961;51.936;4.788;2023-05-19T13:04:34;102490.91;;;21.21;33.96
47220;BME280;32961;51.936;4.788;2023-05-19T13:07:02;102481.91;;;21.44;34.60